sensor_id;sensor_type;location;lat;lon;timestamp;pressure;altitude;pressure_sealevel;temperature;humidity
76858;BME280;65830;0.000;0.000;2024-03-23T00:54:02;99909.78;;;7.24;65.06
76858;BME280;65830;0.000;0.000;2024-03-23T00:56:29;99908.31;;;7.20;64.61
76858;BME280;65830;0.000;0.000;2024-03-23T00:58:54;99918.34;;;7.14;64.05
76858;BME280;65830;0.000;0.000;2024-03-23T01:01:20;99917.63;;;7.12;65.11
76858;BME280;65830;0.000;0.000;2024-03-23T01:03:46;99907.28;;;7.09;64.95
76858;BME280;65830;0.000;0.000;2024-03-23T01:06:11;99914.38;;;7.09;64.78
76858;BME280;65830;0.000;0.000;2024-03-23T01:08:37;99914.47;;;7.07;64.56
76858;BME280;65830;0.000;0.000;2024-03-23T01:11:03;99911.09;;;7.05;65.14
76858;BME280;65830;0.000;0.000;2024-03-23T01:13:28;99901.66;;;6.90;64.69
76858;BME280;65830;0.000;0.000;2024-03-23T01:15:54;99903.56;;;6.88;64.07
76858;BME280;65830;0.000;0.000;2024-03-23T01:18:20;99898.69;;;6.82;64.02
76858;BME280;65830;0.000;0.000;2024-03-23T01:20:46;99898.22;;;6.76;63.79
76858;BME280;65830;0.000;0.000;2024-03-23T01:23:12;99905.91;;;6.54;64.84
76858;BME280;65830;0.000;0.000;2024-03-23T01:25:38;99904.91;;;6.31;65.18
76858;BME280;65830;0.000;0.000;2024-03-23T01:28:03;99902.91;;;6.34;66.16
76858;BME280;65830;0.000;0.000;2024-03-23T01:30:29;99910.06;;;6.32;66.90
76858;BME280;65830;0.000;0.000;2024-03-23T01:32:55;99908.69;;;6.27;66.16
76858;BME280;65830;0.000;0.000;2024-03-23T01:35:21;99906.34;;;6.22;66.88
76858;BME280;65830;0.000;0.000;2024-03-23T01:37:47;99903.63;;;6.24;67.52
76858;BME280;65830;0.000;0.000;2024-03-23T01:40:12;99899.94;;;6.26;66.72
76858;BME280;65830;0.000;0.000;2024-03-23T01:42:41;99906.16;;;6.25;66.90
76858;BME280;65830;0.000;0.000;2024-03-23T01:45:07;99905.09;;;6.15;66.35
76858;BME280;65830;0.000;0.000;2024-03-23T01:47:33;99908.47;;;6.17;67.26
76858;BME280;65830;0.000;0.000;2024-03-23T01:49:59;99905.75;;;6.19;67.32
76858;BME280;65830;0.000;0.000;2024-03-23T01:52:24;99909.75;;;6.11;66.65
76858;BME280;65830;0.000;0.000;2024-03-23T01:54:50;99905.00;;;6.16;67.38
76858;BME280;65830;0.000;0.000;2024-03-23T01:57:16;99917.22;;;6.18;68.83
76858;BME280;65830;0.000;0.000;2024-03-23T01:59:41;99911.03;;;6.19;68.58
76858;BME280;65830;0.000;0.000;2024-03-23T02:02:09;99906.34;;;6.22;68.47
76858;BME280;65830;0.000;0.000;2024-03-23T02:04:35;99907.19;;;6.10;68.09
76858;BME280;65830;0.000;0.000;2024-03-23T02:07:00;99905.94;;;6.15;68.61
76858;BME280;65830;0.000;0.000;2024-03-23T02:09:26;99911.59;;;5.96;68.41
76858;BME280;65830;0.000;0.000;2024-03-23T02:11:51;99906.72;;;5.90;68.65
76858;BME280;65830;0.000;0.000;2024-03-23T02:14:17;99901.50;;;6.03;69.15
76858;BME280;65830;0.000;0.000;2024-03-23T02:16:42;99906.97;;;6.00;70.71
76858;BME280;65830;0.000;0.000;2024-03-23T02:19:08;99907.44;;;6.07;70.82
76858;BME280;65830;0.000;0.000;2024-03-23T02:21:34;99906.78;;;6.03;70.22
76858;BME280;65830;0.000;0.000;2024-03-23T02:23:59;99908.03;;;5.97;70.20
76858;BME280;65830;0.000;0.000;2024-03-23T02:26:25;99902.19;;;5.92;70.24
76858;BME280;65830;0.000;0.000;2024-03-23T02:28:51;99897.50;;;5.97;72.05
76858;BME280;65830;0.000;0.000;2024-03-23T02:31:16;99900.69;;;6.03;71.08
76858;BME280;65830;0.000;0.000;2024-03-23T02:33:42;99903.41;;;6.01;70.32
76858;BME280;65830;0.000;0.000;2024-03-23T02:36:07;99906.13;;;6.00;70.39
76858;BME280;65830;0.000;0.000;2024-03-23T02:38:33;99894.97;;;5.96;70.85
76858;BME280;65830;0.000;0.000;2024-03-23T02:41:04;99900.03;;;5.99;71.21
76858;BME280;65830;0.000;0.000;2024-03-23T02:43:30;99907.09;;;5.99;70.52
76858;BME280;65830;0.000;0.000;2024-03-23T02:45:57;99904.09;;;5.90;71.27
76858;BME280;65830;0.000;0.000;2024-03-23T02:48:22;99905.88;;;5.90;71.19
76858;BME280;65830;0.000;0.000;2024-03-23T02:50:49;99898.63;;;5.93;71.19
76858;BME280;65830;0.000;0.000;2024-03-23T02:53:14;99896.75;;;5.95;73.33
76858;BME280;65830;0.000;0.000;2024-03-23T02:55:40;99906.34;;;5.96;72.51
76858;BME280;65830;0.000;0.000;2024-03-23T02:58:05;99898.13;;;6.01;74.37
76858;BME280;65830;0.000;0.000;2024-03-23T03:00:31;99899.81;;;6.02;73.33
76858;BME280;65830;0.000;0.000;2024-03-23T03:02:56;99897.91;;;6.04;73.43
76858;BME280;65830;0.000;0.000;2024-03-23T03:05:22;99907.53;;;6.05;73.72
76858;BME280;65830;0.000;0.000;2024-03-23T03:07:47;99904.06;;;6.05;71.89
76858;BME280;65830;0.000;0.000;2024-03-23T03:10:13;99897.81;;;6.06;74.11
76858;BME280;65830;0.000;0.000;2024-03-23T03:12:38;99894.34;;;6.05;72.76
76858;BME280;65830;0.000;0.000;2024-03-23T03:15:04;99898.78;;;6.05;72.89
76858;BME280;65830;0.000;0.000;2024-03-23T03:17:30;99888.25;;;6.05;74.23
76858;BME280;65830;0.000;0.000;2024-03-23T03:19:56;99895.19;;;6.06;71.83
76858;BME280;65830;0.000;0.000;2024-03-23T03:22:22;99890.88;;;6.05;73.38
76858;BME280;65830;0.000;0.000;2024-03-23T03:24:47;99888.44;;;6.02;73.05
76858;BME280;65830;0.000;0.000;2024-03-23T03:27:13;99885.06;;;6.00;73.54
76858;BME280;65830;0.000;0.000;2024-03-23T03:29:38;99892.03;;;6.01;71.82
76858;BME280;65830;0.000;0.000;2024-03-23T03:32:04;99890.44;;;5.98;72.38
76858;BME280;65830;0.000;0.000;2024-03-23T03:34:30;99895.78;;;5.96;73.83
76858;BME280;65830;0.000;0.000;2024-03-23T03:36:56;99892.22;;;5.97;73.12
76858;BME280;65830;0.000;0.000;2024-03-23T03:39:22;99895.69;;;5.98;73.78
76858;BME280;65830;0.000;0.000;2024-03-23T03:41:48;99898.34;;;5.98;72.56
76858;BME280;65830;0.000;0.000;2024-03-23T03:44:13;99906.47;;;5.95;72.87
76858;BME280;65830;0.000;0.000;2024-03-23T03:46:39;99901.94;;;5.97;71.97
76858;BME280;65830;0.000;0.000;2024-03-23T03:49:04;99901.44;;;5.90;71.07
76858;BME280;65830;0.000;0.000;2024-03-23T03:51:30;99906.72;;;5.90;72.79
76858;BME280;65830;0.000;0.000;2024-03-23T03:53:56;99911.25;;;5.88;71.77
76858;BME280;65830;0.000;0.000;2024-03-23T03:56:21;99908.63;;;5.88;72.45
76858;BME280;65830;0.000;0.000;2024-03-23T03:58:47;99906.94;;;5.87;71.70
76858;BME280;65830;0.000;0.000;2024-03-23T04:01:13;99913.13;;;5.86;70.72
76858;BME280;65830;0.000;0.000;2024-03-23T04:03:38;99914.50;;;5.79;70.82
76858;BME280;65830;0.000;0.000;2024-03-23T04:06:09;99909.66;;;5.73;69.78
76858;BME280;65830;0.000;0.000;2024-03-23T04:08:34;99916.16;;;5.67;69.21
76858;BME280;65830;0.000;0.000;2024-03-23T04:11:00;99917.00;;;5.68;67.29
76858;BME280;65830;0.000;0.000;2024-03-23T04:13:25;99923.91;;;5.56;68.25
76858;BME280;65830;0.000;0.000;2024-03-23T04:15:54;99913.38;;;5.56;70.11
76858;BME280;65830;0.000;0.000;2024-03-23T04:18:20;99922.25;;;5.55;69.35
76858;BME280;65830;0.000;0.000;2024-03-23T04:20:47;99925.16;;;5.50;69.98
76858;BME280;65830;0.000;0.000;2024-03-23T04:23:12;99924.06;;;5.40;70.03
76858;BME280;65830;0.000;0.000;2024-03-23T04:25:38;99932.03;;;5.26;69.42
76858;BME280;65830;0.000;0.000;2024-03-23T04:28:03;99928.81;;;5.21;70.14
76858;BME280;65830;0.000;0.000;2024-03-23T04:30:29;99931.66;;;5.17;70.23
76858;BME280;65830;0.000;0.000;2024-03-23T04:32:55;99934.47;;;5.14;71.29
76858;BME280;65830;0.000;0.000;2024-03-23T04:35:22;99933.56;;;5.15;71.96
76858;BME280;65830;0.000;0.000;2024-03-23T04:37:50;99931.28;;;5.09;71.18
76858;BME280;65830;0.000;0.000;2024-03-23T04:40:17;99933.91;;;5.09;71.88
76858;BME280;65830;0.000;0.000;2024-03-23T04:42:43;99936.19;;;5.01;70.86
76858;BME280;65830;0.000;0.000;2024-03-23T04:45:08;99935.34;;;5.01;71.79
76858;BME280;65830;0.000;0.000;2024-03-23T04:47:34;99945.56;;;5.05;72.68
76858;BME280;65830;0.000;0.000;2024-03-23T04:50:02;99947.28;;;5.06;72.34
76858;BME280;65830;0.000;0.000;2024-03-23T04:52:29;99945.22;;;5.11;73.21
76858;BME280;65830;0.000;0.000;2024-03-23T04:54:55;99942.59;;;5.11;71.61
76858;BME280;65830;0.000;0.000;2024-03-23T04:57:20;99936.94;;;5.03;71.49
76858;BME280;65830;0.000;0.000;2024-03-23T04:59:46;99942.75;;;5.08;72.29
76858;BME280;65830;0.000;0.000;2024-03-23T05:02:12;99945.38;;;5.08;71.51
76858;BME280;65830;0.000;0.000;2024-03-23T05:04:40;99940.31;;;5.20;70.44
76858;BME280;65830;0.000;0.000;2024-03-23T05:07:06;99935.66;;;5.23;70.11
76858;BME280;65830;0.000;0.000;2024-03-23T05:09:32;99933.13;;;5.36;69.36
76858;BME280;65830;0.000;0.000;2024-03-23T05:12:01;99934.50;;;5.42;69.70
76858;BME280;65830;0.000;0.000;2024-03-23T05:14:27;99931.88;;;5.42;68.82
76858;BME280;65830;0.000;0.000;2024-03-23T05:16:53;99932.06;;;5.38;69.00
76858;BME280;65830;0.000;0.000;2024-03-23T05:19:19;99931.78;;;5.43;68.89
76858;BME280;65830;0.000;0.000;2024-03-23T05:21:44;99934.84;;;5.50;68.42
76858;BME280;65830;0.000;0.000;2024-03-23T05:24:11;99928.00;;;5.47;67.89
76858;BME280;65830;0.000;0.000;2024-03-23T05:26:37;99928.53;;;5.52;68.30
76858;BME280;65830;0.000;0.000;2024-03-23T05:29:02;99930.47;;;5.63;66.86
76858;BME280;65830;0.000;0.000;2024-03-23T05:31:29;99926.97;;;5.63;66.73
76858;BME280;65830;0.000;0.000;2024-03-23T05:33:55;99927.94;;;5.62;66.88
76858;BME280;65830;0.000;0.000;2024-03-23T05:36:21;99939.53;;;5.59;66.73
76858;BME280;65830;0.000;0.000;2024-03-23T05:38:47;99924.00;;;5.54;66.65
76858;BME280;65830;0.000;0.000;2024-03-23T05:41:13;99927.19;;;5.60;67.32
76858;BME280;65830;0.000;0.000;2024-03-23T05:43:38;99929.34;;;5.67;67.62
76858;BME280;65830;0.000;0.000;2024-03-23T05:46:04;99922.81;;;5.73;66.88
76858;BME280;65830;0.000;0.000;2024-03-23T05:48:38;99923.16;;;5.81;67.18
76858;BME280;65830;0.000;0.000;2024-03-23T05:51:04;99929.69;;;5.88;68.19
76858;BME280;65830;0.000;0.000;2024-03-23T05:53:29;99928.66;;;5.91;66.36
76858;BME280;65830;0.000;0.000;2024-03-23T05:56:01;99923.00;;;5.97;65.75
76858;BME280;65830;0.000;0.000;2024-03-23T05:58:30;99924.25;;;6.04;65.31
76858;BME280;65830;0.000;0.000;2024-03-23T06:00:57;99928.28;;;6.10;64.78
76858;BME280;65830;0.000;0.000;2024-03-23T06:03:22;99921.66;;;6.17;64.50
76858;BME280;65830;0.000;0.000;2024-03-23T06:05:48;99932.19;;;6.17;64.30
76858;BME280;65830;0.000;0.000;2024-03-23T06:08:13;99928.69;;;6.04;64.18
76858;BME280;65830;0.000;0.000;2024-03-23T06:10:40;99925.31;;;6.02;64.49
76858;BME280;65830;0.000;0.000;2024-03-23T06:13:06;99923.00;;;6.10;64.08
76858;BME280;65830;0.000;0.000;2024-03-23T06:15:31;99923.25;;;5.92;63.88
76858;BME280;65830;0.000;0.000;2024-03-23T06:17:57;99923.00;;;6.10;63.67
76858;BME280;65830;0.000;0.000;2024-03-23T06:20:23;99932.28;;;6.15;63.56
76858;BME280;65830;0.000;0.000;2024-03-23T06:22:56;99924.91;;;6.33;63.33
76858;BME280;65830;0.000;0.000;2024-03-23T06:25:25;99922.09;;;6.36;63.28
76858;BME280;65830;0.000;0.000;2024-03-23T06:28:00;99922.19;;;6.61;61.70
76858;BME280;65830;0.000;0.000;2024-03-23T06:30:36;99921.63;;;6.55;61.67
76858;BME280;65830;0.000;0.000;2024-03-23T06:33:21;99922.19;;;6.61;62.26
76858;BME280;65830;0.000;0.000;2024-03-23T06:35:53;99925.41;;;6.77;62.12
76858;BME280;65830;0.000;0.000;2024-03-23T06:38:18;99925.16;;;6.93;62.12
76858;BME280;65830;0.000;0.000;2024-03-23T06:40:44;99920.19;;;7.01;60.69
76858;BME280;65830;0.000;0.000;2024-03-23T06:43:15;99927.78;;;7.06;60.66
76858;BME280;65830;0.000;0.000;2024-03-23T06:45:41;99921.66;;;7.05;60.03
76858;BME280;65830;0.000;0.000;2024-03-23T06:48:16;99925.84;;;7.21;59.83
76858;BME280;65830;0.000;0.000;2024-03-23T06:50:44;99918.09;;;7.30;60.02
76858;BME280;65830;0.000;0.000;2024-03-23T06:53:27;99918.16;;;7.42;59.74
76858;BME280;65830;0.000;0.000;2024-03-23T06:56:02;99924.56;;;7.50;59.93
76858;BME280;65830;0.000;0.000;2024-03-23T06:58:31;99925.56;;;7.61;60.21
76858;BME280;65830;0.000;0.000;2024-03-23T07:00:56;99920.06;;;7.64;59.39
76858;BME280;65830;0.000;0.000;2024-03-23T07:03:22;99922.25;;;7.70;59.75
76858;BME280;65830;0.000;0.000;2024-03-23T07:05:49;99914.59;;;7.78;59.86
76858;BME280;65830;0.000;0.000;2024-03-23T07:08:14;99912.28;;;8.09;57.40
76858;BME280;65830;0.000;0.000;2024-03-23T07:10:46;99911.81;;;8.15;58.06
76858;BME280;65830;0.000;0.000;2024-03-23T07:13:21;99913.00;;;8.22;57.56
76858;BME280;65830;0.000;0.000;2024-03-23T07:15:57;99910.03;;;8.27;58.37
76858;BME280;65830;0.000;0.000;2024-03-23T07:18:52;99905.53;;;8.63;55.09
76858;BME280;65830;0.000;0.000;2024-03-23T07:21:18;99902.63;;;8.77;55.11
76858;BME280;65830;0.000;0.000;2024-03-23T07:23:44;99908.97;;;8.86;54.82
76858;BME280;65830;0.000;0.000;2024-03-23T07:30:02;99910.19;;;8.93;56.52
76858;BME280;65830;0.000;0.000;2024-03-23T07:36:33;99907.13;;;9.20;55.51
76858;BME280;65830;0.000;0.000;2024-03-23T07:39:25;99893.41;;;9.26;55.64
76858;BME280;65830;0.000;0.000;2024-03-23T07:42:00;99888.31;;;9.34;53.52
76858;BME280;65830;0.000;0.000;2024-03-23T07:44:26;99896.34;;;9.44;54.64
76858;BME280;65830;0.000;0.000;2024-03-23T07:47:15;99888.59;;;9.52;51.91
76858;BME280;65830;0.000;0.000;2024-03-23T07:50:27;99884.22;;;9.63;53.75
76858;BME280;65830;0.000;0.000;2024-03-23T07:52:34;99879.06;;;9.82;53.10
76858;BME280;65830;0.000;0.000;2024-03-23T07:55:00;99881.91;;;9.90;53.13
76858;BME280;65830;0.000;0.000;2024-03-23T07:57:29;99874.31;;;9.97;52.79
76858;BME280;65830;0.000;0.000;2024-03-23T07:59:55;99877.03;;;10.07;49.92
76858;BME280;65830;0.000;0.000;2024-03-23T08:02:20;99878.69;;;10.08;51.69
76858;BME280;65830;0.000;0.000;2024-03-23T08:04:46;99874.03;;;10.21;51.72
76858;BME280;65830;0.000;0.000;2024-03-23T08:07:11;99867.38;;;10.27;51.70
76858;BME280;65830;0.000;0.000;2024-03-23T08:09:37;99858.75;;;10.34;51.75
76858;BME280;65830;0.000;0.000;2024-03-23T08:12:02;99861.59;;;10.43;52.42
76858;BME280;65830;0.000;0.000;2024-03-23T08:14:28;99852.78;;;10.42;50.85
76858;BME280;65830;0.000;0.000;2024-03-23T08:16:54;99855.81;;;10.59;52.36
76858;BME280;65830;0.000;0.000;2024-03-23T08:19:19;99858.78;;;10.75;52.62
76858;BME280;65830;0.000;0.000;2024-03-23T08:21:45;99857.28;;;10.82;51.73
76858;BME280;65830;0.000;0.000;2024-03-23T08:24:11;99852.84;;;10.92;50.95
76858;BME280;65830;0.000;0.000;2024-03-23T08:26:36;99844.31;;;10.99;49.89
76858;BME280;65830;0.000;0.000;2024-03-23T08:29:03;99847.53;;;11.02;52.70
76858;BME280;65830;0.000;0.000;2024-03-23T08:31:28;99848.38;;;11.12;49.58
76858;BME280;65830;0.000;0.000;2024-03-23T08:33:54;99836.09;;;11.21;52.33
76858;BME280;65830;0.000;0.000;2024-03-23T08:36:19;99847.00;;;11.28;50.07
76858;BME280;65830;0.000;0.000;2024-03-23T08:38:45;99835.41;;;11.39;49.81
76858;BME280;65830;0.000;0.000;2024-03-23T08:41:11;99828.13;;;11.50;48.62
76858;BME280;65830;0.000;0.000;2024-03-23T08:43:40;99826.97;;;11.72;46.86
76858;BME280;65830;0.000;0.000;2024-03-23T08:46:06;99824.34;;;11.63;47.88
76858;BME280;65830;0.000;0.000;2024-03-23T08:48:32;99823.94;;;11.67;47.13
76858;BME280;65830;0.000;0.000;2024-03-23T08:50:59;99822.38;;;11.65;47.19
76858;BME280;65830;0.000;0.000;2024-03-23T08:53:26;99816.78;;;11.68;46.12
76858;BME280;65830;0.000;0.000;2024-03-23T08:55:53;99812.28;;;11.78;48.57
76858;BME280;65830;0.000;0.000;2024-03-23T08:58:18;99813.09;;;11.88;45.91
76858;BME280;65830;0.000;0.000;2024-03-23T09:00:45;99801.31;;;12.10;44.72
76858;BME280;65830;0.000;0.000;2024-03-23T09:03:11;99804.91;;;12.29;45.85
76858;BME280;65830;0.000;0.000;2024-03-23T09:05:39;99792.38;;;12.39;43.99
76858;BME280;65830;0.000;0.000;2024-03-23T09:08:05;99795.19;;;12.38;44.07
76858;BME280;65830;0.000;0.000;2024-03-23T09:10:31;99791.69;;;12.37;44.92
76858;BME280;65830;0.000;0.000;2024-03-23T09:12:56;99797.44;;;12.32;45.38
76858;BME280;65830;0.000;0.000;2024-03-23T09:15:22;99783.50;;;12.48;44.25
76858;BME280;65830;0.000;0.000;2024-03-23T09:17:47;99778.56;;;12.81;43.42
76858;BME280;65830;0.000;0.000;2024-03-23T09:20:13;99778.56;;;12.99;42.37
76858;BME280;65830;0.000;0.000;2024-03-23T09:22:38;99761.97;;;12.69;44.64
76858;BME280;65830;0.000;0.000;2024-03-23T09:25:04;99774.97;;;12.73;47.25
76858;BME280;65830;0.000;0.000;2024-03-23T09:27:30;99768.44;;;12.67;43.90
76858;BME280;65830;0.000;0.000;2024-03-23T09:29:56;99764.00;;;12.58;44.19
76858;BME280;65830;0.000;0.000;2024-03-23T09:32:21;99750.69;;;12.58;45.17
76858;BME280;65830;0.000;0.000;2024-03-23T09:34:47;99759.50;;;12.58;43.70
76858;BME280;65830;0.000;0.000;2024-03-23T09:37:12;99757.31;;;12.71;45.78
76858;BME280;65830;0.000;0.000;2024-03-23T09:39:38;99754.19;;;12.76;46.19
76858;BME280;65830;0.000;0.000;2024-03-23T09:42:03;99741.41;;;12.80;47.38
76858;BME280;65830;0.000;0.000;2024-03-23T09:44:29;99745.16;;;12.87;47.90
76858;BME280;65830;0.000;0.000;2024-03-23T09:46:55;99741.22;;;12.91;46.01
76858;BME280;65830;0.000;0.000;2024-03-23T09:49:21;99735.66;;;13.02;44.25
76858;BME280;65830;0.000;0.000;2024-03-23T09:51:46;99731.69;;;13.06;45.53
76858;BME280;65830;0.000;0.000;2024-03-23T09:54:12;99733.41;;;13.16;44.98
76858;BME280;65830;0.000;0.000;2024-03-23T09:56:37;99721.72;;;13.26;44.88
76858;BME280;65830;0.000;0.000;2024-03-23T09:59:03;99719.97;;;13.35;45.70
76858;BME280;65830;0.000;0.000;2024-03-23T10:01:29;99715.00;;;13.40;43.16
76858;BME280;65830;0.000;0.000;2024-03-23T10:03:55;99712.41;;;13.48;44.13
76858;BME280;65830;0.000;0.000;2024-03-23T10:06:21;99712.28;;;13.58;44.31
76858;BME280;65830;0.000;0.000;2024-03-23T10:08:47;99673.09;;;13.50;44.48
76858;BME280;65830;0.000;0.000;2024-03-23T10:11:16;99709.47;;;13.86;43.90
76858;BME280;65830;0.000;0.000;2024-03-23T10:13:42;99698.16;;;13.92;44.96
76858;BME280;65830;0.000;0.000;2024-03-23T10:16:09;99693.34;;;13.96;44.10
76858;BME280;65830;0.000;0.000;2024-03-23T10:18:38;99686.88;;;14.06;43.14
76858;BME280;65830;0.000;0.000;2024-03-23T10:23:37;99677.78;;;14.34;43.01
76858;BME280;65830;0.000;0.000;2024-03-23T10:28:50;99671.81;;;14.48;43.12
76858;BME280;65830;0.000;0.000;2024-03-23T10:31:15;99662.63;;;14.42;43.07
76858;BME280;65830;0.000;0.000;2024-03-23T10:33:44;99662.44;;;14.27;42.84
76858;BME280;65830;0.000;0.000;2024-03-23T10:36:10;99659.91;;;14.18;43.42
76858;BME280;65830;0.000;0.000;2024-03-23T10:38:35;99654.75;;;14.24;44.33
76858;BME280;65830;0.000;0.000;2024-03-23T10:41:01;99643.50;;;14.96;41.27
76858;BME280;65830;0.000;0.000;2024-03-23T10:43:27;99637.13;;;15.22;40.75
76858;BME280;65830;0.000;0.000;2024-03-23T10:45:54;99642.16;;;15.25;40.87
76858;BME280;65830;0.000;0.000;2024-03-23T10:48:19;99638.50;;;15.01;40.77
76858;BME280;65830;0.000;0.000;2024-03-23T10:50:45;99627.81;;;14.93;40.91
76858;BME280;65830;0.000;0.000;2024-03-23T10:53:11;99631.16;;;15.03;40.99
76858;BME280;65830;0.000;0.000;2024-03-23T10:55:37;99631.31;;;15.18;41.60
76858;BME280;65830;0.000;0.000;2024-03-23T10:58:03;99618.41;;;15.30;39.73
76858;BME280;65830;0.000;0.000;2024-03-23T11:00:29;99618.25;;;15.23;40.43
76858;BME280;65830;0.000;0.000;2024-03-23T11:02:54;99616.78;;;15.13;39.75
76858;BME280;65830;0.000;0.000;2024-03-23T11:07:52;99599.56;;;15.15;39.47
76858;BME280;65830;0.000;0.000;2024-03-23T11:10:28;99596.72;;;15.25;39.98
76858;BME280;65830;0.000;0.000;2024-03-23T11:12:58;99598.03;;;15.29;39.29
76858;BME280;65830;0.000;0.000;2024-03-23T11:15:43;99580.63;;;15.41;39.31
76858;BME280;65830;0.000;0.000;2024-03-23T11:18:09;99573.91;;;15.45;37.56
76858;BME280;65830;0.000;0.000;2024-03-23T11:20:35;99570.88;;;15.57;38.19
76858;BME280;65830;0.000;0.000;2024-03-23T11:23:01;99565.16;;;15.99;37.34
76858;BME280;65830;0.000;0.000;2024-03-23T11:25:27;99543.53;;;16.32;36.93
76858;BME280;65830;0.000;0.000;2024-03-23T11:27:53;99555.63;;;16.51;36.15
76858;BME280;65830;0.000;0.000;2024-03-23T11:30:20;99544.94;;;16.66;34.74
76858;BME280;65830;0.000;0.000;2024-03-23T11:32:47;99535.53;;;16.70;34.43
76858;BME280;65830;0.000;0.000;2024-03-23T11:40:39;99523.06;;;16.77;33.55
76858;BME280;65830;0.000;0.000;2024-03-23T11:43:05;99517.72;;;16.77;34.30
76858;BME280;65830;0.000;0.000;2024-03-23T11:45:38;99513.13;;;16.86;35.55
76858;BME280;65830;0.000;0.000;2024-03-23T11:50:37;99505.00;;;17.39;35.17
76858;BME280;65830;0.000;0.000;2024-03-23T11:53:06;99498.31;;;17.50;35.60
76858;BME280;65830;0.000;0.000;2024-03-23T11:55:38;99497.72;;;17.69;35.37
76858;BME280;65830;0.000;0.000;2024-03-23T11:58:04;99486.22;;;17.90;34.73
76858;BME280;65830;0.000;0.000;2024-03-23T12:00:29;99490.06;;;18.02;32.99
76858;BME280;65830;0.000;0.000;2024-03-23T12:02:59;99484.69;;;18.24;32.62
76858;BME280;65830;0.000;0.000;2024-03-23T12:05:26;99471.56;;;18.36;35.32
76858;BME280;65830;0.000;0.000;2024-03-23T12:07:51;99470.50;;;18.58;32.85
76858;BME280;65830;0.000;0.000;2024-03-23T12:10:18;99469.06;;;18.91;33.92
76858;BME280;65830;0.000;0.000;2024-03-23T12:12:44;99460.97;;;19.19;32.00
76858;BME280;65830;0.000;0.000;2024-03-23T12:15:10;99460.22;;;19.38;31.44
76858;BME280;65830;0.000;0.000;2024-03-23T12:17:38;99458.38;;;19.39;32.74
76858;BME280;65830;0.000;0.000;2024-03-23T12:20:04;99459.25;;;19.53;32.15
76858;BME280;65830;0.000;0.000;2024-03-23T12:22:29;99443.75;;;19.68;32.82
76858;BME280;65830;0.000;0.000;2024-03-23T12:24:55;99451.31;;;20.06;29.76
76858;BME280;65830;0.000;0.000;2024-03-23T12:27:21;99438.88;;;20.45;29.00
76858;BME280;65830;0.000;0.000;2024-03-23T12:29:47;99440.53;;;20.79;30.30
76858;BME280;65830;0.000;0.000;2024-03-23T12:32:13;99438.63;;;20.93;27.56
76858;BME280;65830;0.000;0.000;2024-03-23T12:34:38;99432.09;;;21.21;27.55
76858;BME280;65830;0.000;0.000;2024-03-23T12:37:04;99431.53;;;20.99;26.70
76858;BME280;65830;0.000;0.000;2024-03-23T12:39:32;99420.19;;;21.35;25.22
76858;BME280;65830;0.000;0.000;2024-03-23T12:41:57;99414.06;;;21.60;26.49
76858;BME280;65830;0.000;0.000;2024-03-23T12:44:24;99413.50;;;21.83;26.37
76858;BME280;65830;0.000;0.000;2024-03-23T12:46:49;99413.78;;;21.75;26.13
76858;BME280;65830;0.000;0.000;2024-03-23T12:49:14;99399.91;;;22.21;25.65
76858;BME280;65830;0.000;0.000;2024-03-23T12:51:46;99404.47;;;21.96;25.07
76858;BME280;65830;0.000;0.000;2024-03-23T12:54:13;99392.41;;;22.49;25.23
76858;BME280;65830;0.000;0.000;2024-03-23T12:56:38;99400.84;;;22.96;24.50
76858;BME280;65830;0.000;0.000;2024-03-23T12:59:04;99392.63;;;23.09;25.65
76858;BME280;65830;0.000;0.000;2024-03-23T13:01:29;99387.41;;;23.68;23.94
76858;BME280;65830;0.000;0.000;2024-03-23T13:03:55;99382.94;;;24.16;24.41
76858;BME280;65830;0.000;0.000;2024-03-23T13:06:20;99375.78;;;24.69;23.50
76858;BME280;65830;0.000;0.000;2024-03-23T13:08:46;99372.22;;;24.80;21.06
76858;BME280;65830;0.000;0.000;2024-03-23T13:11:12;99372.09;;;24.04;22.61
76858;BME280;65830;0.000;0.000;2024-03-23T13:13:38;99371.63;;;24.19;22.55
76858;BME280;65830;0.000;0.000;2024-03-23T13:16:04;99362.44;;;24.55;22.91
76858;BME280;65830;0.000;0.000;2024-03-23T13:18:31;99361.13;;;23.99;21.99
76858;BME280;65830;0.000;0.000;2024-03-23T13:20:56;99358.09;;;24.54;23.14
76858;BME280;65830;0.000;0.000;2024-03-23T13:23:22;99347.25;;;24.54;19.83
76858;BME280;65830;0.000;0.000;2024-03-23T13:25:51;99356.47;;;25.06;20.49
76858;BME280;65830;0.000;0.000;2024-03-23T13:28:18;99342.41;;;24.56;20.92
76858;BME280;65830;0.000;0.000;2024-03-23T13:30:51;99348.63;;;24.69;20.51
76858;BME280;65830;0.000;0.000;2024-03-23T13:33:16;99339.84;;;25.19;20.15
76858;BME280;65830;0.000;0.000;2024-03-23T13:35:48;99341.03;;;25.98;20.81
76858;BME280;65830;0.000;0.000;2024-03-23T13:38:14;99332.88;;;26.75;20.96
76858;BME280;65830;0.000;0.000;2024-03-23T13:40:39;99336.06;;;27.39;20.47
76858;BME280;65830;0.000;0.000;2024-03-23T13:43:05;99328.06;;;27.27;18.86
76858;BME280;65830;0.000;0.000;2024-03-23T13:45:30;99327.19;;;26.38;19.58
76858;BME280;65830;0.000;0.000;2024-03-23T13:47:56;99322.50;;;26.33;19.51
76858;BME280;65830;0.000;0.000;2024-03-23T13:50:21;99324.78;;;26.81;19.13
76858;BME280;65830;0.000;0.000;2024-03-23T13:52:47;99315.88;;;26.63;17.54
76858;BME280;65830;0.000;0.000;2024-03-23T13:55:12;99315.22;;;26.56;17.83
76858;BME280;65830;0.000;0.000;2024-03-23T13:57:40;99309.44;;;26.13;18.35
76858;BME280;65830;0.000;0.000;2024-03-23T14:00:07;99306.25;;;27.00;18.13
76858;BME280;65830;0.000;0.000;2024-03-23T14:02:38;99305.44;;;25.99;18.26
76858;BME280;65830;0.000;0.000;2024-03-23T14:05:04;99309.22;;;26.76;21.27
76858;BME280;65830;0.000;0.000;2024-03-23T14:07:29;99303.72;;;27.20;17.41
76858;BME280;65830;0.000;0.000;2024-03-23T14:09:55;99288.91;;;27.65;17.52
76858;BME280;65830;0.000;0.000;2024-03-23T14:12:20;99287.69;;;26.97;19.47
76858;BME280;65830;0.000;0.000;2024-03-23T14:14:46;99285.06;;;27.99;17.41
76858;BME280;65830;0.000;0.000;2024-03-23T14:17:12;99294.53;;;28.28;18.27
76858;BME280;65830;0.000;0.000;2024-03-23T14:19:39;99279.47;;;28.74;18.02
76858;BME280;65830;0.000;0.000;2024-03-23T14:22:05;99273.06;;;29.21;16.53
76858;BME280;65830;0.000;0.000;2024-03-23T14:24:32;99281.03;;;28.54;17.42
76858;BME280;65830;0.000;0.000;2024-03-23T14:26:58;99269.66;;;28.73;17.96
76858;BME280;65830;0.000;0.000;2024-03-23T14:29:23;99261.44;;;28.15;17.92
76858;BME280;65830;0.000;0.000;2024-03-23T14:31:49;99268.22;;;28.55;19.95